Time;durP1;ratioP1;P1;durP2;ratioP2;P2;SDS_P1;SDS_P2;PMS_P1;PMS_P2;Temp;Humidity;BMP_temperature;BMP_pressure;BME280_temperature;BME280_humidity;BME280_pressure;Samples;Min_cycle;Max_cycle;Signal;HPM_P1;HPM_P2
2022/07/17 00:02:23;;;;;;;8.57;1.92;;;15.00;99.90;;;;;;5030528;28;20037;-60
2022/07/17 00:04:49;;;;;;;3.58;1.70;;;14.90;99.90;;;;;;5025485;28;20022;-61
2022/07/17 00:07:14;;;;;;;5.75;2.25;;;14.90;99.90;;;;;;5029258;28;20021;-60
2022/07/17 00:09:40;;;;;;;5.97;1.98;;;15.00;99.90;;;;;;5028564;28;20037;-60
2022/07/17 00:12:06;;;;;;;6.80;1.77;;;15.00;99.90;;;;;;5034303;28;20025;-60
2022/07/17 00:14:32;;;;;;;6.05;2.10;;;15.00;99.90;;;;;;5035229;28;20433;-60
2022/07/17 00:16:58;;;;;;;4.63;2.03;;;14.70;99.90;;;;;;5034864;28;20018;-61
2022/07/17 00:19:24;;;;;;;3.55;1.85;;;14.70;99.90;;;;;;5038892;28;20028;-61
2022/07/17 00:21:50;;;;;;;6.97;2.40;;;14.70;99.90;;;;;;5032691;28;20040;-60
2022/07/17 00:24:19;;;;;;;3.92;1.90;;;14.80;99.90;;;;;;5030008;28;20029;-61
2022/07/17 00:26:46;;;;;;;5.38;2.03;;;14.80;99.90;;;;;;5033266;28;20026;-60
2022/07/17 00:29:12;;;;;;;6.22;1.83;;;14.70;99.90;;;;;;5030194;28;20496;-60
2022/07/17 00:31:37;;;;;;;6.40;2.00;;;14.70;99.90;;;;;;5031151;28;20037;-60
2022/07/17 00:34:03;;;;;;;5.30;1.70;;;14.60;99.90;;;;;;5028206;28;20028;-60
2022/07/17 00:36:29;;;;;;;11.70;2.17;;;14.60;99.90;;;;;;5025499;28;20458;-61
2022/07/17 00:38:54;;;;;;;5.13;2.38;;;14.60;99.90;;;;;;5029586;28;20025;-61
2022/07/17 00:41:20;;;;;;;7.20;2.75;;;14.50;99.90;;;;;;5026659;28;20080;-60
2022/07/17 00:43:46;;;;;;;5.72;2.50;;;14.50;99.90;;;;;;5033067;28;20033;-60
2022/07/17 00:46:12;;;;;;;7.13;2.75;;;14.40;99.90;;;;;;5031231;28;20124;-60
2022/07/17 00:48:37;;;;;;;6.25;2.55;;;14.40;99.90;;;;;;5028377;28;20263;-60
2022/07/17 00:51:03;;;;;;;8.10;2.70;;;14.30;99.90;;;;;;5026572;28;20716;-60
2022/07/17 00:53:33;;;;;;;7.75;2.60;;;14.30;99.90;;;;;;5029178;28;20366;-61
2022/07/17 00:56:02;;;;;;;6.18;3.13;;;14.20;99.90;;;;;;5039854;28;20029;-60
2022/07/17 00:58:29;;;;;;;9.90;2.80;;;14.30;99.90;;;;;;5041444;28;20030;-60
2022/07/17 01:00:55;;;;;;;8.00;2.72;;;14.40;99.90;;;;;;5029168;28;20362;-60
2022/07/17 01:03:24;;;;;;;5.53;2.60;;;14.20;99.90;;;;;;5033390;28;20025;-60
2022/07/17 01:05:50;;;;;;;5.80;2.45;;;14.10;99.90;;;;;;5044996;28;20460;-60
2022/07/17 01:08:15;;;;;;;7.18;2.53;;;14.20;99.90;;;;;;5030356;28;20104;-60
2022/07/17 01:10:41;;;;;;;7.18;2.78;;;14.10;99.90;;;;;;5033526;28;20613;-61
2022/07/17 01:13:07;;;;;;;9.90;2.40;;;14.20;99.90;;;;;;5032985;28;20032;-60
2022/07/17 01:15:36;;;;;;;5.03;2.20;;;14.10;99.90;;;;;;5044847;28;20526;-61
2022/07/17 01:18:10;;;;;;;8.23;2.38;;;14.10;99.90;;;;;;5039417;28;20028;-60
2022/07/17 01:20:37;;;;;;;8.95;2.70;;;14.10;99.90;;;;;;5033787;28;20435;-60
2022/07/17 01:23:03;;;;;;;7.18;2.30;;;14.10;99.90;;;;;;5029299;28;20187;-60
2022/07/17 01:25:29;;;;;;;5.20;2.35;;;14.10;99.90;;;;;;5036605;28;20036;-60
2022/07/17 01:27:54;;;;;;;5.30;2.20;;;14.20;99.90;;;;;;5034587;28;20035;-60
2022/07/17 01:30:20;;;;;;;5.60;2.40;;;14.30;99.90;;;;;;5034907;28;20039;-61
2022/07/17 01:32:46;;;;;;;5.25;2.20;;;14.20;99.90;;;;;;5029923;28;20033;-60
2022/07/17 01:35:13;;;;;;;5.65;2.53;;;14.10;99.90;;;;;;5032319;28;20033;-60
2022/07/17 01:37:40;;;;;;;5.40;2.25;;;14.10;99.90;;;;;;5031175;28;20100;-60
2022/07/17 01:40:07;;;;;;;5.05;2.17;;;14.00;99.90;;;;;;5032243;28;20056;-60
2022/07/17 01:42:33;;;;;;;9.95;2.35;;;14.00;99.90;;;;;;5031858;28;20398;-60
2022/07/17 01:44:58;;;;;;;4.88;2.10;;;14.10;99.90;;;;;;5037586;28;20037;-60
2022/07/17 01:47:24;;;;;;;4.93;2.30;;;14.10;99.90;;;;;;5042475;28;20037;-60
2022/07/17 01:49:52;;;;;;;7.38;2.20;;;14.10;99.90;;;;;;5038528;28;20878;-60
2022/07/17 01:52:18;;;;;;;5.68;2.67;;;14.00;99.90;;;;;;5042317;28;20017;-60
2022/07/17 01:54:44;;;;;;;5.30;2.13;;;14.00;99.90;;;;;;5046087;28;20021;-60
2022/07/17 01:57:11;;;;;;;7.57;2.65;;;13.90;99.90;;;;;;5038213;28;20083;-60
2022/07/17 01:59:37;;;;;;;9.43;2.08;;;;;;;;;;5030333;28;20060;-61
2022/07/17 02:02:04;;;;;;;9.82;2.42;;;13.60;99.90;;;;;;5031959;28;20057;-60
2022/07/17 02:04:31;;;;;;;6.47;2.25;;;13.70;99.90;;;;;;5028103;28;20025;-60
2022/07/17 02:06:56;;;;;;;4.50;2.00;;;13.70;99.90;;;;;;5032884;28;20118;-60
2022/07/17 02:09:22;;;;;;;6.03;2.25;;;13.60;99.90;;;;;;5029125;28;20553;-61
2022/07/17 02:11:49;;;;;;;6.57;2.70;;;13.60;99.90;;;;;;5035682;28;20949;-60
2022/07/17 02:14:15;;;;;;;7.90;2.00;;;13.40;99.90;;;;;;5033129;28;20113;-60
2022/07/17 02:16:40;;;;;;;4.90;2.50;;;13.50;99.90;;;;;;5041456;28;20025;-60
2022/07/17 02:19:06;;;;;;;7.57;2.30;;;13.50;99.90;;;;;;5039961;28;20045;-60
2022/07/17 02:21:31;;;;;;;6.35;2.33;;;13.60;99.90;;;;;;5034678;28;20029;-60
2022/07/17 02:23:57;;;;;;;6.85;2.40;;;13.60;99.90;;;;;;5032128;28;20025;-60
2022/07/17 02:26:23;;;;;;;5.78;2.30;;;13.50;99.90;;;;;;5037579;28;20056;-60
2022/07/17 02:28:48;;;;;;;6.25;2.53;;;13.70;99.90;;;;;;5036266;28;20488;-61
2022/07/17 02:31:14;;;;;;;4.15;2.08;;;13.60;99.90;;;;;;5034197;28;20022;-61
2022/07/17 02:33:40;;;;;;;6.57;2.60;;;13.50;99.90;;;;;;5029470;28;20105;-60
2022/07/17 02:36:06;;;;;;;7.10;2.67;;;13.50;99.90;;;;;;5030000;28;20113;-60
2022/07/17 02:38:31;;;;;;;7.57;2.20;;;13.50;99.90;;;;;;5032031;28;20105;-60
2022/07/17 02:40:57;;;;;;;5.25;2.38;;;13.50;99.90;;;;;;5028882;28;20076;-60
2022/07/17 02:43:23;;;;;;;8.20;2.20;;;13.30;99.90;;;;;;5032869;28;20237;-60
2022/07/17 02:45:48;;;;;;;8.15;2.50;;;13.30;99.90;;;;;;5036223;28;20025;-60
2022/07/17 02:48:14;;;;;;;6.00;2.55;;;13.20;99.90;;;;;;5030659;28;20746;-60
2022/07/17 02:50:39;;;;;;;4.90;1.98;;;13.10;99.90;;;;;;5033493;28;20090;-60
2022/07/17 02:53:05;;;;;;;6.13;2.65;;;13.00;99.90;;;;;;5037371;28;20021;-60
2022/07/17 02:55:31;;;;;;;8.10;2.53;;;12.90;99.90;;;;;;5037588;28;20025;-60
2022/07/17 02:57:57;;;;;;;5.75;2.30;;;13.10;99.90;;;;;;5033904;28;20017;-60
2022/07/17 03:00:23;;;;;;;12.10;2.78;;;13.20;99.90;;;;;;5027452;28;20063;-60
2022/07/17 03:02:48;;;;;;;6.45;2.63;;;13.40;99.90;;;;;;5038094;28;20042;-60
2022/07/17 03:05:16;;;;;;;5.30;2.33;;;13.30;99.90;;;;;;5027140;28;20611;-60
2022/07/17 03:07:44;;;;;;;6.68;2.47;;;13.20;99.90;;;;;;5033016;28;20622;-60
2022/07/17 03:10:09;;;;;;;5.65;2.33;;;13.10;99.90;;;;;;5031855;28;20021;-60
2022/07/17 03:12:35;;;;;;;4.03;2.40;;;13.00;99.90;;;;;;5031309;28;20051;-60
2022/07/17 03:15:01;;;;;;;5.75;2.15;;;13.10;99.90;;;;;;5035551;28;20369;-60
2022/07/17 03:17:27;;;;;;;5.57;2.25;;;13.10;99.90;;;;;;5035699;28;20026;-60
2022/07/17 03:19:52;;;;;;;5.70;2.35;;;13.00;99.90;;;;;;5042680;28;20040;-60
2022/07/17 03:22:18;;;;;;;6.43;2.42;;;13.10;99.90;;;;;;5028853;28;20032;-60
2022/07/17 03:24:44;;;;;;;6.88;2.63;;;13.00;99.90;;;;;;5035200;28;20107;-60
2022/07/17 03:27:09;;;;;;;6.88;2.38;;;12.90;99.90;;;;;;5032986;28;20029;-60
2022/07/17 03:29:35;;;;;;;5.95;2.47;;;12.90;99.90;;;;;;5036594;28;20025;-60
2022/07/17 03:32:00;;;;;;;5.25;2.50;;;13.00;99.90;;;;;;5032965;28;20464;-60
2022/07/17 03:34:26;;;;;;;6.30;2.50;;;13.10;99.90;;;;;;5030243;28;20018;-60
2022/07/17 03:36:51;;;;;;;8.38;2.60;;;13.00;99.90;;;;;;5027456;28;20033;-60
2022/07/17 03:39:17;;;;;;;5.90;2.63;;;13.00;99.90;;;;;;5031026;28;20452;-60
2022/07/17 03:41:43;;;;;;;6.47;2.42;;;13.00;99.90;;;;;;5030885;28;20016;-60
2022/07/17 03:44:09;;;;;;;4.88;2.45;;;12.80;99.90;;;;;;5033298;28;20037;-60
2022/07/17 03:46:35;;;;;;;8.68;2.70;;;12.80;99.90;;;;;;5035970;28;20057;-60
2022/07/17 03:49:01;;;;;;;7.30;3.00;;;12.70;99.90;;;;;;5029679;28;20071;-60
2022/07/17 03:51:26;;;;;;;7.43;2.50;;;12.80;99.90;;;;;;5027564;28;20033;-60
2022/07/17 03:53:52;;;;;;;5.05;2.63;;;12.90;99.90;;;;;;5032081;28;20340;-60
2022/07/17 03:56:18;;;;;;;6.32;2.50;;;12.90;99.90;;;;;;5036778;28;20017;-60
2022/07/17 03:58:44;;;;;;;8.63;2.70;;;12.80;99.90;;;;;;5028359;28;20029;-60
2022/07/17 04:01:12;;;;;;;6.57;2.50;;;12.80;99.90;;;;;;5026915;28;20032;-60
2022/07/17 04:03:38;;;;;;;8.88;2.63;;;12.80;99.90;;;;;;5030571;28;20272;-60
2022/07/17 04:06:04;;;;;;;7.10;2.70;;;12.80;99.90;;;;;;5031689;28;20551;-60
2022/07/17 04:08:30;;;;;;;9.95;2.95;;;12.70;99.90;;;;;;5030083;28;20032;-60
2022/07/17 04:10:55;;;;;;;8.32;2.70;;;12.70;99.90;;;;;;5030581;28;20033;-60
2022/07/17 04:13:21;;;;;;;9.88;3.00;;;12.80;99.90;;;;;;5033748;28;20480;-60
2022/07/17 04:15:50;;;;;;;4.70;2.40;;;12.80;99.90;;;;;;5034857;28;20453;-60
2022/07/17 04:18:29;;;;;;;7.68;2.67;;;12.70;99.90;;;;;;5042867;28;20020;-60
2022/07/17 04:21:04;;;;;;;7.93;2.80;;;12.80;99.90;;;;;;5030195;28;20030;-60
2022/07/17 04:23:31;;;;;;;6.38;2.33;;;12.80;99.90;;;;;;5027858;28;20033;-60
2022/07/17 04:25:56;;;;;;;6.20;2.80;;;12.80;99.90;;;;;;5040040;28;20028;-60
2022/07/17 04:28:22;;;;;;;8.60;2.50;;;12.90;99.90;;;;;;5024562;28;20040;-60
2022/07/17 04:30:48;;;;;;;10.60;3.20;;;12.90;99.90;;;;;;5033147;28;20032;-60
2022/07/17 04:33:14;;;;;;;7.43;2.60;;;12.90;99.90;;;;;;5025322;28;20057;-59
2022/07/17 04:35:39;;;;;;;7.72;2.83;;;13.00;99.90;;;;;;5031068;28;20057;-60
2022/07/17 04:38:07;;;;;;;5.72;3.15;;;13.10;99.90;;;;;;5030315;28;20029;-60
2022/07/17 04:40:33;;;;;;;8.77;2.70;;;13.00;99.90;;;;;;5027634;28;20095;-60
2022/07/17 04:42:58;;;;;;;7.95;3.00;;;13.10;99.90;;;;;;5030997;28;20029;-60
2022/07/17 04:45:25;;;;;;;7.28;2.90;;;13.20;99.90;;;;;;5034467;28;20029;-60
2022/07/17 04:47:50;;;;;;;9.13;3.17;;;13.20;99.90;;;;;;5028753;28;20017;-60
2022/07/17 04:50:16;;;;;;;6.80;3.05;;;13.40;99.90;;;;;;5028255;28;20083;-60
2022/07/17 04:52:42;;;;;;;5.28;2.90;;;13.40;99.90;;;;;;5030161;28;20489;-60
2022/07/17 04:55:08;;;;;;;8.23;3.42;;;13.40;99.90;;;;;;5032617;28;20021;-60
2022/07/17 04:57:33;;;;;;;10.07;3.00;;;13.40;99.90;;;;;;5040459;28;20028;-60
2022/07/17 04:59:59;;;;;;;10.38;3.97;;;13.50;99.90;;;;;;5026508;28;20171;-60
2022/07/17 05:02:24;;;;;;;6.13;2.63;;;13.50;99.90;;;;;;5037718;28;20033;-61
2022/07/17 05:04:50;;;;;;;6.57;3.25;;;13.60;99.90;;;;;;5026246;28;20029;-61
2022/07/17 05:07:15;;;;;;;6.75;3.22;;;13.60;99.90;;;;;;5029700;28;20036;-60
2022/07/17 05:09:41;;;;;;;7.82;3.00;;;13.70;99.90;;;;;;5029406;28;20037;-60
2022/07/17 05:12:07;;;;;;;7.00;3.13;;;13.80;99.90;;;;;;5029827;28;20440;-61
2022/07/17 05:14:34;;;;;;;9.48;2.85;;;14.10;99.90;;;;;;5030526;28;20532;-61
2022/07/17 05:16:59;;;;;;;6.47;2.90;;;14.10;99.90;;;;;;5036171;28;20021;-61
2022/07/17 05:19:25;;;;;;;5.38;2.80;;;14.20;99.90;;;;;;5038650;28;20488;-61
2022/07/17 05:21:50;;;;;;;7.82;2.55;;;14.30;99.90;;;;;;5031433;28;20037;-61
2022/07/17 05:24:16;;;;;;;6.82;3.47;;;14.30;99.90;;;;;;5037173;28;20032;-61
2022/07/17 05:26:42;;;;;;;8.45;3.40;;;14.50;99.90;;;;;;5035378;28;20037;-61
2022/07/17 05:29:07;;;;;;;6.93;2.95;;;14.60;99.90;;;;;;5024332;28;20036;-61
2022/07/17 05:31:33;;;;;;;7.13;2.80;;;14.80;99.90;;;;;;5034101;28;20408;-61
2022/07/17 05:33:58;;;;;;;10.48;3.10;;;14.80;99.90;;;;;;5029423;28;20821;-61
2022/07/17 05:36:24;;;;;;;7.80;3.00;;;15.10;99.90;;;;;;5037325;28;20049;-61
2022/07/17 05:38:50;;;;;;;8.10;3.20;;;15.00;99.90;;;;;;5035902;28;20504;-62
2022/07/17 05:41:15;;;;;;;7.85;3.03;;;15.00;99.90;;;;;;5027433;28;20022;-62
2022/07/17 05:43:41;;;;;;;10.80;3.38;;;15.00;99.90;;;;;;5029361;28;20028;-60
2022/07/17 05:46:06;;;;;;;7.38;3.00;;;15.00;99.90;;;;;;5036280;28;20032;-61
2022/07/17 05:48:32;;;;;;;7.45;3.10;;;15.10;99.90;;;;;;5032391;28;20693;-61
2022/07/17 05:50:58;;;;;;;9.95;2.92;;;15.20;99.90;;;;;;5034043;28;20120;-61
2022/07/17 05:53:23;;;;;;;7.38;2.67;;;15.40;99.90;;;;;;5033662;28;20543;-60
2022/07/17 05:55:50;;;;;;;7.07;2.80;;;15.50;99.90;;;;;;5035475;28;20496;-61
2022/07/17 05:58:15;;;;;;;9.27;3.22;;;15.80;99.90;;;;;;5031131;28;20022;-61
2022/07/17 06:00:41;;;;;;;9.63;2.97;;;15.90;99.90;;;;;;5029853;28;20048;-62
2022/07/17 06:03:07;;;;;;;9.55;3.15;;;15.90;99.90;;;;;;5032269;28;20432;-61
2022/07/17 06:05:32;;;;;;;11.45;3.10;;;15.80;99.90;;;;;;5030615;28;20072;-60
2022/07/17 06:07:58;;;;;;;9.38;2.97;;;15.90;99.90;;;;;;5039849;28;20021;-61
2022/07/17 06:10:25;;;;;;;10.48;3.22;;;16.00;99.90;;;;;;5033696;28;20025;-61
2022/07/17 06:12:52;;;;;;;9.00;3.15;;;16.10;99.90;;;;;;5032542;28;20092;-61
2022/07/17 06:15:19;;;;;;;13.48;3.55;;;16.30;99.90;;;;;;5036668;28;20037;-61
2022/07/17 06:17:45;;;;;;;6.47;3.15;;;16.50;99.90;;;;;;5038954;28;20024;-62
2022/07/17 06:20:12;;;;;;;9.80;4.10;;;16.40;99.90;;;;;;5033717;28;20125;-60
2022/07/17 06:22:37;;;;;;;11.95;3.35;;;16.60;99.90;;;;;;5029493;28;20205;-60
2022/07/17 06:25:03;;;;;;;8.98;3.25;;;16.70;99.90;;;;;;5039093;28;20423;-61
2022/07/17 06:27:29;;;;;;;7.72;3.20;;;16.70;99.90;;;;;;5033102;28;20045;-62
2022/07/17 06:29:55;;;;;;;8.50;3.10;;;17.00;99.90;;;;;;5030915;28;20611;-61
2022/07/17 06:32:20;;;;;;;7.68;3.28;;;17.10;99.90;;;;;;5033227;28;20091;-61
2022/07/17 06:34:47;;;;;;;9.75;3.13;;;17.00;99.90;;;;;;5039835;28;20511;-61
2022/07/17 06:37:12;;;;;;;5.57;3.10;;;17.00;99.90;;;;;;5032054;28;20026;-60
2022/07/17 06:39:38;;;;;;;11.98;3.15;;;17.10;99.90;;;;;;5037369;28;20118;-61
2022/07/17 06:42:04;;;;;;;10.80;3.15;;;17.20;99.90;;;;;;5027751;28;20508;-61
2022/07/17 06:44:29;;;;;;;8.63;2.97;;;17.10;99.90;;;;;;5038400;28;20401;-61
2022/07/17 06:46:55;;;;;;;6.90;2.80;;;17.10;99.90;;;;;;5023974;28;20059;-61
2022/07/17 06:49:20;;;;;;;8.93;3.05;;;17.20;99.90;;;;;;5031557;28;20104;-61
2022/07/17 06:51:47;;;;;;;6.93;2.83;;;17.50;99.90;;;;;;5039825;28;20040;-61
2022/07/17 06:54:13;;;;;;;8.40;2.70;;;17.50;99.90;;;;;;5031556;28;20030;-62
2022/07/17 06:56:39;;;;;;;9.55;2.80;;;17.80;99.90;;;;;;5034314;28;20060;-61
2022/07/17 06:59:07;;;;;;;7.85;2.97;;;17.70;99.90;;;;;;5030436;28;20053;-60
2022/07/17 07:01:36;;;;;;;7.85;2.80;;;17.90;99.90;;;;;;5032270;28;20480;-60
2022/07/17 07:04:03;;;;;;;8.18;3.17;;;18.00;99.90;;;;;;5030575;28;20025;-61
2022/07/17 07:06:30;;;;;;;10.38;2.67;;;17.90;99.90;;;;;;5033721;28;20409;-61
2022/07/17 07:08:56;;;;;;;8.85;2.78;;;18.10;99.90;;;;;;5027642;28;20029;-62
2022/07/17 07:11:23;;;;;;;8.32;2.33;;;18.20;99.90;;;;;;5026437;28;20025;-62
2022/07/17 07:13:51;;;;;;;8.25;2.03;;;18.40;99.90;;;;;;5040377;28;20033;-61
2022/07/17 07:16:16;;;;;;;12.25;2.35;;;18.40;99.90;;;;;;5037560;28;20047;-61
2022/07/17 07:18:42;;;;;;;9.13;2.42;;;18.40;99.90;;;;;;5032693;28;20486;-61
2022/07/17 07:21:08;;;;;;;10.23;2.50;;;18.60;99.90;;;;;;5033168;28;20471;-62
2022/07/17 07:23:33;;;;;;;6.65;2.25;;;18.50;99.90;;;;;;5028377;28;20033;-61
2022/07/17 07:25:59;;;;;;;8.60;2.35;;;18.90;99.90;;;;;;5038701;28;20087;-62
2022/07/17 07:28:24;;;;;;;8.25;2.10;;;19.00;99.90;;;;;;5026369;28;20037;-61
2022/07/17 07:30:50;;;;;;;5.97;2.25;;;18.90;99.90;;;;;;5035646;28;20025;-61
2022/07/17 07:33:16;;;;;;;10.68;2.30;;;19.00;99.90;;;;;;5027110;28;20079;-61
2022/07/17 07:35:42;;;;;;;7.55;2.30;;;19.00;99.90;;;;;;5042548;28;20072;-61
2022/07/17 07:38:08;;;;;;;8.20;2.28;;;19.00;99.90;;;;;;5031894;28;20055;-61
2022/07/17 07:40:33;;;;;;;8.38;2.20;;;18.90;99.90;;;;;;5028934;28;20030;-61
2022/07/17 07:42:59;;;;;;;8.93;2.38;;;18.90;99.90;;;;;;5026127;28;20592;-61
2022/07/17 07:45:25;;;;;;;6.22;1.90;;;19.00;99.90;;;;;;5033333;28;20033;-61
2022/07/17 07:47:51;;;;;;;8.05;2.05;;;19.00;99.90;;;;;;5028702;28;20024;-64
2022/07/17 07:50:17;;;;;;;8.43;2.15;;;19.00;99.90;;;;;;5028587;28;20473;-61
2022/07/17 07:52:43;;;;;;;8.68;2.47;;;19.10;99.90;;;;;;5031562;28;20030;-61
2022/07/17 07:55:11;;;;;;;7.45;2.50;;;19.50;99.90;;;;;;5034931;28;20508;-61
2022/07/17 07:57:37;;;;;;;5.80;2.00;;;19.50;99.90;;;;;;5038554;28;20036;-61
2022/07/17 08:00:05;;;;;;;9.48;2.30;;;19.50;99.90;;;;;;5031975;28;20120;-61
2022/07/17 08:02:31;;;;;;;6.60;2.00;;;19.40;99.90;;;;;;5029958;28;20076;-62
2022/07/17 08:04:57;;;;;;;6.55;2.22;;;19.50;99.90;;;;;;5026777;28;20061;-61
2022/07/17 08:07:22;;;;;;;6.10;2.00;;;19.60;99.90;;;;;;5031976;28;20033;-60
2022/07/17 08:09:48;;;;;;;8.98;2.20;;;19.60;99.90;;;;;;5028130;28;20017;-60
2022/07/17 08:12:14;;;;;;;5.70;1.77;;;19.50;99.90;;;;;;5029403;28;20049;-61
2022/07/17 08:14:39;;;;;;;5.82;1.77;;;19.50;99.90;;;;;;5032808;28;20100;-62
2022/07/17 08:17:05;;;;;;;5.28;1.70;;;19.70;99.90;;;;;;5038523;28;20020;-60
2022/07/17 08:19:31;;;;;;;4.35;1.75;;;19.70;99.90;;;;;;5030241;28;20032;-61
2022/07/17 08:21:56;;;;;;;5.97;1.90;;;19.70;99.90;;;;;;5031157;28;20021;-61
2022/07/17 08:24:22;;;;;;;7.47;1.95;;;19.70;99.90;;;;;;5030037;28;20537;-61
2022/07/17 08:26:48;;;;;;;7.70;1.67;;;19.80;99.90;;;;;;5036978;28;20504;-61
2022/07/17 08:29:15;;;;;;;7.10;1.70;;;19.90;99.90;;;;;;5035597;28;20753;-62
2022/07/17 08:31:41;;;;;;;6.80;1.55;;;19.90;99.90;;;;;;5037892;28;20540;-61
2022/07/17 08:34:07;;;;;;;6.35;1.80;;;20.10;99.90;;;;;;5029609;28;20104;-61
2022/07/17 08:36:32;;;;;;;5.47;1.52;;;20.30;99.90;;;;;;5030946;28;20021;-62
2022/07/17 08:38:58;;;;;;;5.78;1.75;;;20.40;99.90;;;;;;5028453;28;20456;-61
2022/07/17 08:41:25;;;;;;;2.33;1.33;;;20.50;99.90;;;;;;5026743;28;20026;-61
2022/07/17 08:43:52;;;;;;;6.70;1.83;;;20.40;99.90;;;;;;5029531;28;20559;-61
2022/07/17 08:46:18;;;;;;;9.40;2.30;;;20.30;99.90;;;;;;5035089;28;20135;-61
2022/07/17 08:48:46;;;;;;;4.50;1.50;;;20.30;99.90;;;;;;5026836;28;20112;-61
2022/07/17 08:51:12;;;;;;;5.88;1.65;;;20.40;99.90;;;;;;5030244;28;20037;-61
2022/07/17 08:53:38;;;;;;;5.25;1.45;;;20.70;99.90;;;;;;5028047;28;20130;-62
2022/07/17 08:56:04;;;;;;;6.07;1.60;;;20.80;99.90;;;;;;5030212;28;20556;-61
2022/07/17 08:58:30;;;;;;;7.63;1.50;;;20.90;99.90;;;;;;5035726;28;20116;-62
2022/07/17 09:00:55;;;;;;;8.20;1.58;;;20.90;99.90;;;;;;5035563;28;20593;-61
2022/07/17 09:03:23;;;;;;;8.68;1.40;;;20.80;99.90;;;;;;5036224;28;20385;-61
2022/07/17 09:05:49;;;;;;;4.20;1.65;;;20.80;99.90;;;;;;5037602;28;20033;-61
2022/07/17 09:08:23;;;;;;;9.05;1.70;;;21.00;99.90;;;;;;5024617;28;20021;-61
2022/07/17 09:10:52;;;;;;;7.55;1.77;;;21.20;99.90;;;;;;5028339;28;20083;-61
2022/07/17 09:13:26;;;;;;;7.25;1.83;;;21.10;99.90;;;;;;5029603;28;20017;-61
2022/07/17 09:15:55;;;;;;;5.97;1.60;;;21.30;99.90;;;;;;5035745;28;20083;-61
2022/07/17 09:18:21;;;;;;;6.05;1.60;;;21.20;99.90;;;;;;5050209;28;20055;-62
2022/07/17 09:20:53;;;;;;;8.40;1.90;;;20.90;99.90;;;;;;5033457;28;20533;-62
2022/07/17 09:23:20;;;;;;;6.75;1.73;;;21.00;99.90;;;;;;5035679;28;20214;-62
2022/07/17 09:25:49;;;;;;;5.20;1.50;;;21.20;99.90;;;;;;5035406;28;20086;-61
2022/07/17 09:28:16;;;;;;;4.75;1.67;;;21.00;99.90;;;;;;5045111;28;20139;-62
2022/07/17 09:30:47;;;;;;;3.55;1.50;;;21.20;99.90;;;;;;5033220;28;21098;-61
2022/07/17 09:33:17;;;;;;;6.20;1.95;;;21.40;99.90;;;;;;5032320;28;20369;-62
2022/07/17 09:36:08;;;;;;;4.25;1.88;;;21.50;99.90;;;;;;5031152;28;20427;-62
2022/07/17 09:38:36;;;;;;;5.78;1.80;;;21.30;99.90;;;;;;5025907;28;20042;-62
2022/07/17 09:41:18;;;;;;;8.10;1.80;;;21.40;99.90;;;;;;5028960;28;20052;-61
2022/07/17 09:43:59;;;;;;;4.93;1.70;;;21.50;99.90;;;;;;5034126;28;20098;-62
2022/07/17 09:46:33;;;;;;;6.57;1.88;;;21.30;99.90;;;;;;5038483;28;20036;-61
2022/07/17 09:49:04;;;;;;;5.15;1.73;;;21.30;99.90;;;;;;5030403;28;20029;-62
2022/07/17 09:51:32;;;;;;;8.43;1.83;;;21.50;99.90;;;;;;5044673;28;20032;-62
2022/07/17 09:54:03;;;;;;;7.93;1.42;;;21.30;99.90;;;;;;5030441;28;20025;-61
2022/07/17 09:56:31;;;;;;;6.65;1.70;;;21.40;99.90;;;;;;5035620;28;20488;-62
2022/07/17 09:59:00;;;;;;;7.22;1.70;;;21.30;99.90;;;;;;5031283;28;20721;-61
2022/07/17 10:01:26;;;;;;;5.43;1.92;;;21.50;99.90;;;;;;5038848;28;20036;-61
2022/07/17 10:03:53;;;;;;;8.73;2.10;;;21.80;99.90;;;;;;5028014;28;20013;-63
2022/07/17 10:06:20;;;;;;;6.32;1.90;;;21.90;99.90;;;;;;5039958;28;20513;-62
2022/07/17 10:08:46;;;;;;;6.10;1.30;;;22.10;99.90;;;;;;5032086;28;20056;-62
2022/07/17 10:11:15;;;;;;;6.60;1.70;;;22.10;99.90;;;;;;5031611;28;20620;-62
2022/07/17 10:13:43;;;;;;;9.10;1.92;;;22.20;99.90;;;;;;5034856;28;20029;-60
2022/07/17 10:16:09;;;;;;;7.25;2.00;;;22.10;99.90;;;;;;5035835;28;20138;-62
2022/07/17 10:18:43;;;;;;;7.32;2.08;;;22.00;99.90;;;;;;5037947;28;20089;-62
2022/07/17 10:21:13;;;;;;;7.53;2.00;;;21.90;99.90;;;;;;5032652;28;20036;-62
2022/07/17 10:23:39;;;;;;;8.05;2.00;;;22.00;99.90;;;;;;5036964;28;20614;-61
2022/07/17 10:26:05;;;;;;;6.95;1.85;;;21.90;99.90;;;;;;5034693;28;20031;-60
2022/07/17 10:28:45;;;;;;;6.72;1.88;;;22.20;99.90;;;;;;5041853;28;20104;-61
2022/07/17 10:31:23;;;;;;;3.67;1.67;;;22.10;99.90;;;;;;5036064;28;20485;-62
2022/07/17 10:34:00;;;;;;;4.90;1.83;;;22.10;99.90;;;;;;5040066;28;20052;-61
2022/07/17 10:36:40;;;;;;;5.85;1.63;;;22.40;99.90;;;;;;5027329;28;20022;-62
2022/07/17 10:39:20;;;;;;;7.32;2.13;;;22.40;99.90;;;;;;5031003;28;20075;-62
2022/07/17 10:41:58;;;;;;;8.18;2.28;;;22.50;99.90;;;;;;5032757;28;20009;-62
2022/07/17 10:44:26;;;;;;;5.22;1.63;;;22.60;99.90;;;;;;5028939;28;20026;-61
2022/07/17 10:46:53;;;;;;;5.70;1.70;;;22.50;99.90;;;;;;5038927;28;20033;-61
2022/07/17 10:49:19;;;;;;;5.05;1.73;;;22.60;99.90;;;;;;5044857;28;20118;-61
2022/07/17 10:51:48;;;;;;;8.80;1.80;;;22.60;99.90;;;;;;5029941;28;20104;-61
2022/07/17 10:54:14;;;;;;;3.97;1.80;;;22.40;99.90;;;;;;5027992;28;20671;-62
2022/07/17 10:56:40;;;;;;;6.18;1.60;;;21.70;99.90;;;;;;5030924;28;20064;-61
2022/07/17 10:59:06;;;;;;;7.10;1.52;;;22.50;99.90;;;;;;5028747;28;20036;-62
2022/07/17 11:01:32;;;;;;;5.20;1.58;;;22.60;99.90;;;;;;5033769;28;20045;-62
2022/07/17 11:04:01;;;;;;;9.20;1.75;;;23.50;99.90;;;;;;5032796;28;20025;-62
2022/07/17 11:06:30;;;;;;;4.72;1.60;;;22.80;99.90;;;;;;5030125;28;20029;-61
2022/07/17 11:08:57;;;;;;;6.57;1.63;;;22.70;99.90;;;;;;5030599;28;20036;-61
2022/07/17 11:11:34;;;;;;;5.07;1.65;;;22.80;99.90;;;;;;5031331;28;20441;-62
2022/07/17 11:14:10;;;;;;;6.70;1.95;;;23.00;99.90;;;;;;5032087;28;20025;-61
2022/07/17 11:16:37;;;;;;;4.88;1.80;;;22.90;99.90;;;;;;5036239;28;20108;-61
2022/07/17 11:19:03;;;;;;;5.47;1.80;;;22.90;99.90;;;;;;5037340;28;20033;-61
2022/07/17 11:21:28;;;;;;;5.72;1.73;;;22.80;99.90;;;;;;5032976;28;20040;-62
2022/07/17 11:23:56;;;;;;;4.45;1.60;;;23.00;99.90;;;;;;5030412;28;20796;-61
2022/07/17 11:26:22;;;;;;;7.55;1.80;;;23.10;99.90;;;;;;5043316;28;20024;-61
2022/07/17 11:28:49;;;;;;;4.82;1.40;;;23.30;99.90;;;;;;5039153;28;20108;-62
2022/07/17 11:31:26;;;;;;;6.90;1.70;;;23.00;99.90;;;;;;5032353;28;20032;-62
2022/07/17 11:33:53;;;;;;;3.72;1.50;;;23.10;99.90;;;;;;5038551;28;20024;-62
2022/07/17 11:36:23;;;;;;;4.47;1.65;;;23.20;99.90;;;;;;5028518;28;20028;-61
2022/07/17 11:38:49;;;;;;;6.15;1.58;;;23.10;99.90;;;;;;5030748;28;20030;-61
2022/07/17 11:41:18;;;;;;;4.35;1.27;;;23.20;99.90;;;;;;5026769;28;20039;-61
2022/07/17 11:43:45;;;;;;;5.80;1.92;;;23.30;99.90;;;;;;5034062;28;20025;-62
2022/07/17 11:46:11;;;;;;;5.55;1.70;;;23.10;99.90;;;;;;5031623;28;20018;-62
2022/07/17 11:48:36;;;;;;;4.35;1.45;;;23.40;99.90;;;;;;5029028;28;20048;-61
2022/07/17 11:51:02;;;;;;;5.00;1.58;;;23.40;99.90;;;;;;5026535;28;20031;-61
2022/07/17 11:53:33;;;;;;;5.43;1.80;;;23.40;99.90;;;;;;5030778;28;20083;-62
2022/07/17 11:56:00;;;;;;;9.25;1.83;;;23.40;99.90;;;;;;5030440;28;20556;-62
2022/07/17 11:58:26;;;;;;;6.50;1.90;;;23.60;99.90;;;;;;5036313;28;20268;-62
2022/07/17 12:01:04;;;;;;;5.22;1.70;;;23.60;99.90;;;;;;5031466;28;20578;-61
2022/07/17 12:03:31;;;;;;;9.85;1.90;;;23.30;99.90;;;;;;5029568;28;20040;-61
2022/07/17 12:05:57;;;;;;;7.25;1.98;;;23.20;99.90;;;;;;5029997;28;20026;-62
2022/07/17 12:08:23;;;;;;;4.00;1.52;;;23.40;99.90;;;;;;5040996;28;20115;-62
2022/07/17 12:11:03;;;;;;;3.78;1.60;;;23.50;99.90;;;;;;5031074;28;20529;-61
2022/07/17 12:13:43;;;;;;;4.97;1.30;;;23.50;99.90;;;;;;5033539;28;20110;-62
2022/07/17 12:16:28;;;;;;;5.82;1.30;;;23.60;99.90;;;;;;5037906;28;20358;-60
2022/07/17 12:19:09;;;;;;;4.07;1.30;;;23.50;99.90;;;;;;5040041;28;20029;-62
2022/07/17 12:21:59;;;;;;;5.60;1.38;;;23.70;99.90;;;;;;5030937;28;20056;-61
2022/07/17 12:24:30;;;;;;;4.75;1.45;;;23.80;99.90;;;;;;5030400;28;20408;-61
2022/07/17 12:26:59;;;;;;;5.05;1.70;;;23.90;99.90;;;;;;5037122;28;20055;-62
2022/07/17 12:29:25;;;;;;;6.10;1.60;;;23.90;99.90;;;;;;5034023;28;20044;-61
2022/07/17 12:32:10;;;;;;;5.10;1.40;;;23.80;99.90;;;;;;5037808;28;20056;-62
2022/07/17 12:34:44;;;;;;;5.25;1.52;;;23.80;99.90;;;;;;5029072;28;20021;-61
2022/07/17 12:37:10;;;;;;;6.28;1.55;;;23.80;99.90;;;;;;5031435;28;20037;-62
2022/07/17 12:39:36;;;;;;;5.20;1.70;;;23.90;99.90;;;;;;5031890;28;20025;-61
2022/07/17 12:42:02;;;;;;;6.03;1.38;;;23.90;99.90;;;;;;5028979;28;20025;-62
2022/07/17 12:44:28;;;;;;;6.60;1.52;;;23.90;99.90;;;;;;5028789;28;20529;-61
2022/07/17 12:46:53;;;;;;;5.38;1.33;;;24.00;99.90;;;;;;5028624;28;20063;-62